Time;durP1;ratioP1;P1;durP2;ratioP2;P2;SDS_P1;SDS_P2;PMS_P1;PMS_P2;Temp;Humidity;BMP_temperature;BMP_pressure;BME280_temperature;BME280_humidity;BME280_pressure;Samples;Min_cycle;Max_cycle;Signal;HPM_P1;HPM_P2
2023/01/12 00:04:25;;;;;;;3.05;1.02;;;10.10;99.90;;;;;;10135165;28;20021;-67
2023/01/12 00:09:16;;;;;;;2.05;0.70;;;10.10;99.90;;;;;;10122361;28;20056;-67
2023/01/12 00:14:08;;;;;;;2.42;1.00;;;10.10;99.90;;;;;;10135874;28;20032;-68
2023/01/12 00:18:59;;;;;;;3.13;1.20;;;10.10;99.90;;;;;;10136353;28;20078;-68
2023/01/12 00:23:50;;;;;;;4.20;1.15;;;10.10;99.90;;;;;;10131696;28;20037;-69
2023/01/12 00:28:40;;;;;;;2.67;0.70;;;10.10;99.90;;;;;;10120851;28;20562;-70
2023/01/12 00:33:31;;;;;;;3.05;1.25;;;10.10;99.90;;;;;;10124737;28;20033;-67
2023/01/12 00:38:22;;;;;;;2.92;0.95;;;10.10;99.90;;;;;;10127246;28;20521;-66
2023/01/12 00:48:22;;;;;;;5.53;1.42;;;9.90;99.90;;;;;;10114953;28;20064;-67
2023/01/12 00:53:12;;;;;;;3.05;1.35;;;9.90;99.90;;;;;;10132739;28;20031;-67
2023/01/12 00:58:03;;;;;;;4.55;1.55;;;9.80;99.90;;;;;;10126081;28;20501;-64
2023/01/12 01:02:54;;;;;;;1.90;0.90;;;9.80;99.90;;;;;;10124854;28;20543;-66
2023/01/12 01:07:46;;;;;;;2.53;1.25;;;9.90;99.90;;;;;;10134641;28;20036;-68
2023/01/12 01:12:36;;;;;;;1.58;0.98;;;9.80;99.90;;;;;;10129333;28;20147;-66
2023/01/12 01:17:28;;;;;;;5.00;1.73;;;9.80;99.90;;;;;;10137069;28;20101;-68
2023/01/12 01:22:18;;;;;;;5.07;1.30;;;9.80;99.90;;;;;;10134622;28;20040;-66
2023/01/12 01:27:09;;;;;;;3.88;1.30;;;9.80;99.90;;;;;;10130110;28;20035;-65
2023/01/12 01:32:00;;;;;;;7.68;1.20;;;9.80;99.90;;;;;;10130368;28;20112;-67
2023/01/12 01:36:50;;;;;;;4.18;1.40;;;9.70;99.90;;;;;;10123152;28;20017;-69
2023/01/12 01:41:41;;;;;;;6.28;1.70;;;9.70;99.90;;;;;;10124066;28;20047;-70
2023/01/12 01:46:48;;;;;;;6.90;1.55;;;9.60;99.90;;;;;;10114933;28;20212;-68
2023/01/12 01:51:38;;;;;;;5.40;1.20;;;9.70;99.90;;;;;;10121659;28;20035;-67
2023/01/12 01:56:32;;;;;;;4.40;1.52;;;9.70;99.90;;;;;;10130062;28;20017;-65
2023/01/12 02:01:26;;;;;;;8.38;1.95;;;9.70;99.90;;;;;;10129676;28;20033;-69
2023/01/12 02:06:17;;;;;;;7.15;1.65;;;9.70;99.90;;;;;;10128537;28;20532;-64
2023/01/12 02:16:19;;;;;;;5.05;1.40;;;9.70;99.90;;;;;;10130356;28;20059;-66
2023/01/12 02:16:26;;;;;;;4.28;1.27;;;9.70;99.90;;;;;;10121403;28;20324;-69
2023/01/12 02:21:22;;;;;;;3.67;1.67;;;9.70;99.90;;;;;;10134795;28;20045;-67
2023/01/12 02:26:56;;;;;;;2.70;1.20;;;9.70;99.90;;;;;;10124066;28;20262;-67
2023/01/12 02:31:57;;;;;;;2.08;1.05;;;9.80;99.90;;;;;;10139107;28;20060;-73
2023/01/12 02:37:12;;;;;;;2.38;1.17;;;9.80;99.90;;;;;;10142206;28;20041;-65
2023/01/12 02:47:36;;;;;;;4.93;1.65;;;9.90;99.90;;;;;;10141435;28;20035;-66
2023/01/12 02:52:31;;;;;;;4.93;1.20;;;9.90;99.90;;;;;;10140137;28;20398;-68
2023/01/12 02:57:24;;;;;;;3.60;1.13;;;9.90;99.90;;;;;;10144164;28;20542;-66
2023/01/12 03:02:19;;;;;;;7.30;1.40;;;9.90;99.90;;;;;;10130634;28;20049;-66
2023/01/12 03:07:18;;;;;;;6.90;1.17;;;9.90;99.90;;;;;;10121898;28;20028;-68
2023/01/12 03:12:16;;;;;;;5.32;1.95;;;9.90;99.90;;;;;;10117859;28;20476;-65
2023/01/12 03:17:15;;;;;;;2.75;0.95;;;9.90;99.90;;;;;;10133740;28;20025;-66
2023/01/12 03:22:10;;;;;;;5.85;0.93;;;9.90;99.90;;;;;;10136026;28;20673;-64
2023/01/12 03:27:15;;;;;;;3.33;1.67;;;10.00;99.90;;;;;;10132332;28;20063;-65
2023/01/12 03:32:06;;;;;;;2.05;0.90;;;10.00;99.90;;;;;;10132424;28;20038;-66
2023/01/12 03:37:02;;;;;;;2.53;1.00;;;9.90;99.90;;;;;;10130690;28;20028;-64
2023/01/12 03:41:52;;;;;;;6.53;1.35;;;9.90;99.90;;;;;;10127934;28;20052;-65
2023/01/12 03:46:52;;;;;;;4.05;1.45;;;9.90;99.90;;;;;;10116035;28;20024;-65
2023/01/12 03:51:46;;;;;;;3.67;2.05;;;9.90;99.90;;;;;;10121936;28;20514;-65
2023/01/12 03:56:38;;;;;;;3.80;1.38;;;9.80;99.90;;;;;;10135446;28;20459;-66
2023/01/12 04:01:30;;;;;;;5.43;1.15;;;9.80;99.90;;;;;;10133696;28;20036;-65
2023/01/12 04:06:21;;;;;;;5.22;1.23;;;9.80;99.90;;;;;;10122034;28;20028;-68
2023/01/12 04:16:21;;;;;;;5.47;1.48;;;9.80;99.90;;;;;;10141339;28;20034;-66
2023/01/12 04:22:41;;;;;;;4.55;1.27;;;9.80;99.90;;;;;;10135551;28;20042;-65
2023/01/12 04:26:22;;;;;;;4.90;0.98;;;9.70;99.90;;;;;;10124213;28;20033;-67
2023/01/12 04:31:13;;;;;;;3.63;1.65;;;9.70;99.90;;;;;;10124886;28;20510;-66
2023/01/12 04:36:04;;;;;;;6.15;2.20;;;9.70;99.90;;;;;;10129129;28;20025;-64
2023/01/12 04:40:55;;;;;;;5.78;1.05;;;9.70;99.90;;;;;;10128659;28;20032;-65
2023/01/12 04:45:46;;;;;;;5.60;1.58;;;9.70;99.90;;;;;;10125640;28;20445;-66
2023/01/12 04:50:38;;;;;;;7.40;1.67;;;9.70;99.90;;;;;;10121267;28;20044;-65
2023/01/12 04:55:28;;;;;;;3.22;1.60;;;9.60;99.90;;;;;;10136391;28;20028;-69
2023/01/12 05:00:19;;;;;;;11.65;2.22;;;9.60;99.90;;;;;;10134408;28;20029;-65
2023/01/12 05:05:10;;;;;;;2.22;0.93;;;9.70;99.90;;;;;;10125382;28;20024;-65
2023/01/12 05:15:10;;;;;;;6.85;1.33;;;9.60;99.90;;;;;;10121283;28;20117;-65
2023/01/12 05:20:01;;;;;;;1.75;1.15;;;9.60;99.90;;;;;;10132854;28;20113;-64
2023/01/12 05:24:51;;;;;;;8.63;1.20;;;9.70;99.90;;;;;;10129305;28;20032;-68
2023/01/12 05:29:42;;;;;;;3.65;1.13;;;9.70;99.90;;;;;;10126484;28;20563;-67
2023/01/12 05:34:34;;;;;;;6.05;0.93;;;9.70;99.90;;;;;;10121122;28;20049;-67
2023/01/12 05:39:24;;;;;;;5.20;1.55;;;9.70;99.90;;;;;;10133206;28;20486;-66
2023/01/12 05:44:15;;;;;;;6.53;1.40;;;9.70;99.90;;;;;;10117465;28;20067;-70
2023/01/12 05:49:06;;;;;;;2.72;1.13;;;9.70;99.90;;;;;;10119683;28;20028;-67
2023/01/12 05:53:57;;;;;;;2.92;1.02;;;9.70;99.90;;;;;;10130261;28;20060;-68
2023/01/12 05:58:53;;;;;;;2.30;1.25;;;9.70;99.90;;;;;;10134420;28;20032;-66
2023/01/12 06:03:51;;;;;;;4.85;0.90;;;9.70;99.90;;;;;;10114928;28;20025;-70
2023/01/12 06:08:42;;;;;;;2.60;1.42;;;9.70;99.90;;;;;;10133251;28;20021;-66
2023/01/12 06:18:42;;;;;;;8.00;1.08;;;9.70;99.90;;;;;;10140747;28;20060;-67
2023/01/12 06:23:33;;;;;;;4.57;1.10;;;9.80;99.90;;;;;;10144468;28;20044;-66
2023/01/12 06:28:23;;;;;;;5.80;1.17;;;9.70;99.90;;;;;;10136143;28;20036;-65
2023/01/12 06:33:14;;;;;;;3.55;1.02;;;9.80;99.90;;;;;;10130041;28;20508;-69
2023/01/12 06:38:05;;;;;;;6.90;1.83;;;9.80;99.90;;;;;;10135169;28;20021;-66
2023/01/12 06:42:55;;;;;;;1.25;0.75;;;9.80;99.90;;;;;;10133203;28;20046;-69
2023/01/12 06:47:48;;;;;;;3.97;0.93;;;9.80;99.90;;;;;;10140562;28;20479;-68
2023/01/12 06:52:38;;;;;;;6.85;2.13;;;9.80;99.90;;;;;;10138698;28;20024;-72
2023/01/12 06:57:29;;;;;;;2.33;1.33;;;9.90;99.90;;;;;;10136995;28;20054;-69
2023/01/12 07:02:20;;;;;;;2.97;1.00;;;9.80;99.90;;;;;;10139522;28;20391;-66
2023/01/12 07:07:10;;;;;;;4.57;0.80;;;9.90;99.90;;;;;;10129637;28;20021;-67
2023/01/12 07:12:02;;;;;;;5.18;1.13;;;9.80;99.90;;;;;;10117455;28;20048;-65
2023/01/12 07:16:53;;;;;;;3.90;0.88;;;9.90;99.90;;;;;;10134681;28;20020;-69
2023/01/12 07:21:44;;;;;;;3.42;1.33;;;9.80;99.90;;;;;;10137993;28;20390;-66
2023/01/12 07:26:34;;;;;;;3.80;0.95;;;9.80;99.90;;;;;;10126365;28;20031;-70
2023/01/12 07:31:25;;;;;;;2.35;1.05;;;9.80;99.90;;;;;;10127623;28;20486;-70
2023/01/12 07:36:16;;;;;;;4.90;1.00;;;9.80;99.90;;;;;;10132693;28;20047;-71
2023/01/12 07:42:21;;;;;;;2.97;1.15;;;9.80;99.90;;;;;;10136331;28;20040;-71
2023/01/12 07:46:17;;;;;;;5.43;0.80;;;9.90;99.90;;;;;;10126508;28;20028;-70
2023/01/12 07:51:07;;;;;;;4.10;1.33;;;9.90;99.90;;;;;;10123375;28;20957;-72
2023/01/12 07:55:58;;;;;;;2.22;1.63;;;9.90;99.90;;;;;;10137966;28;20055;-67
2023/01/12 08:00:49;;;;;;;3.22;0.85;;;9.90;99.90;;;;;;10130560;28;20447;-66
2023/01/12 08:05:40;;;;;;;3.50;0.90;;;9.90;99.90;;;;;;10119934;28;20057;-66
2023/01/12 08:10:31;;;;;;;4.15;0.98;;;9.90;99.90;;;;;;10136377;28;20133;-66
2023/01/12 08:15:24;;;;;;;3.45;1.17;;;9.90;99.90;;;;;;10137407;28;20534;-71
2023/01/12 08:20:19;;;;;;;2.80;1.77;;;9.90;99.90;;;;;;10137029;28;20040;-71
2023/01/12 08:25:15;;;;;;;4.65;1.42;;;9.90;99.90;;;;;;10129812;28;20032;-70
2023/01/12 08:30:07;;;;;;;3.95;1.05;;;10.00;99.90;;;;;;10134558;28;20067;-73
2023/01/12 08:35:00;;;;;;;7.47;1.38;;;10.00;99.90;;;;;;10138728;28;20497;-71
2023/01/12 08:39:51;;;;;;;3.90;1.70;;;10.00;99.90;;;;;;10136421;28;20052;-69
2023/01/12 08:44:42;;;;;;;2.30;1.10;;;10.10;99.90;;;;;;10138758;28;20036;-69
2023/01/12 08:49:33;;;;;;;2.28;1.33;;;10.10;99.90;;;;;;10138834;28;20063;-66
2023/01/12 08:54:24;;;;;;;4.38;1.25;;;10.30;99.90;;;;;;10135652;28;20028;-68
2023/01/12 08:59:18;;;;;;;4.65;1.15;;;10.30;99.90;;;;;;10135935;28;20398;-67
2023/01/12 09:04:08;;;;;;;2.35;0.70;;;10.30;99.90;;;;;;10126125;28;20274;-65
2023/01/12 09:09:02;;;;;;;2.95;0.90;;;10.40;99.90;;;;;;10132008;28;20306;-67
2023/01/12 09:13:54;;;;;;;7.22;1.10;;;10.40;99.90;;;;;;10135146;28;20064;-65
2023/01/12 09:18:45;;;;;;;3.60;0.85;;;10.40;99.90;;;;;;10135577;28;20028;-67
2023/01/12 09:23:37;;;;;;;3.30;1.23;;;10.40;99.90;;;;;;10135457;28;20039;-67
2023/01/12 09:28:27;;;;;;;9.52;2.05;;;10.40;99.90;;;;;;10124618;28;20028;-66
2023/01/12 09:33:18;;;;;;;3.25;1.45;;;10.40;99.90;;;;;;10133580;28;20017;-66
2023/01/12 09:38:10;;;;;;;6.80;1.52;;;10.40;99.90;;;;;;10136520;28;20138;-67
2023/01/12 09:48:12;;;;;;;10.10;1.50;;;10.40;99.90;;;;;;10143390;28;20749;-65
2023/01/12 09:53:17;;;;;;;2.60;1.10;;;10.40;99.90;;;;;;10153308;28;20032;-67
2023/01/12 09:58:25;;;;;;;1.95;0.95;;;10.40;99.90;;;;;;10142753;28;20012;-66
2023/01/12 10:03:22;;;;;;;3.17;0.73;;;10.40;99.90;;;;;;10132494;28;20402;-65
2023/01/12 10:08:35;;;;;;;2.58;0.88;;;10.30;99.90;;;;;;10135979;28;20028;-66
2023/01/12 10:13:39;;;;;;;3.50;1.20;;;10.30;99.90;;;;;;10126847;28;20055;-66
2023/01/12 10:18:39;;;;;;;1.33;0.80;;;10.40;99.90;;;;;;10140882;28;20122;-67
2023/01/12 10:23:29;;;;;;;7.40;1.08;;;10.40;99.90;;;;;;10135631;28;20051;-67
2023/01/12 10:28:28;;;;;;;1.15;0.65;;;10.30;99.90;;;;;;10127228;28;20021;-67
2023/01/12 10:33:21;;;;;;;3.70;0.70;;;10.40;99.90;;;;;;10134143;28;20060;-67
2023/01/12 10:38:34;;;;;;;2.63;0.70;;;10.40;99.90;;;;;;10133535;28;20089;-67
2023/01/12 10:43:31;;;;;;;3.95;1.42;;;10.50;99.90;;;;;;10131684;28;20028;-66
2023/01/12 10:48:22;;;;;;;2.50;0.80;;;10.60;99.90;;;;;;10127877;28;20086;-66
2023/01/12 10:53:16;;;;;;;5.65;1.40;;;10.70;99.90;;;;;;10136424;28;20032;-65
2023/01/12 10:58:26;;;;;;;2.75;1.27;;;10.80;99.90;;;;;;10129938;28;20028;-67
2023/01/12 11:03:32;;;;;;;2.97;0.75;;;10.90;99.90;;;;;;10140109;28;20041;-67
2023/01/12 11:08:26;;;;;;;2.78;1.75;;;10.90;99.90;;;;;;10141405;28;20070;-66
2023/01/12 11:13:35;;;;;;;2.28;0.65;;;11.00;99.90;;;;;;10139447;28;20044;-67
2023/01/12 11:18:43;;;;;;;4.05;1.05;;;11.00;99.90;;;;;;10121665;28;20115;-69
2023/01/12 11:23:39;;;;;;;3.88;1.13;;;11.00;99.90;;;;;;10139719;28;20111;-70
2023/01/12 11:28:40;;;;;;;1.27;0.68;;;11.10;99.90;;;;;;10130749;28;20234;-72
2023/01/12 11:33:43;;;;;;;1.20;0.77;;;11.10;99.90;;;;;;10138842;28;20012;-70
2023/01/12 11:38:37;;;;;;;2.22;1.08;;;11.10;99.90;;;;;;10139858;28;20483;-73
2023/01/12 11:43:49;;;;;;;1.83;1.13;;;11.10;99.90;;;;;;10139722;28;20485;-74
2023/01/12 11:49:10;;;;;;;1.95;0.60;;;11.10;99.90;;;;;;10138201;28;20028;-74
2023/01/12 11:54:01;;;;;;;2.15;0.68;;;11.00;99.90;;;;;;10139531;28;20134;-74
2023/01/12 11:59:12;;;;;;;2.47;0.60;;;10.90;99.90;;;;;;10134880;28;20036;-68
2023/01/12 12:04:24;;;;;;;1.67;0.73;;;11.00;99.90;;;;;;10129583;28;20033;-71
2023/01/12 12:09:24;;;;;;;3.13;0.90;;;11.00;99.90;;;;;;10119120;28;20060;-73
2023/01/12 12:14:18;;;;;;;3.03;0.90;;;11.10;99.90;;;;;;10147835;28;20048;-67
2023/01/12 12:19:41;;;;;;;6.28;1.02;;;11.10;99.90;;;;;;10132207;28;20483;-72
2023/01/12 12:24:57;;;;;;;2.38;1.30;;;11.10;99.90;;;;;;10135732;28;20356;-69
2023/01/12 12:30:39;;;;;;;2.77;0.57;;;11.20;99.90;;;;;;10144554;28;20028;-72
2023/01/12 12:36:12;;;;;;;4.60;2.03;;;11.20;99.90;;;;;;10112608;28;20102;-69
2023/01/12 12:46:58;;;;;;;2.00;0.70;;;11.10;99.90;;;;;;10123391;28;20087;-66
2023/01/12 12:51:49;;;;;;;1.65;0.90;;;11.20;99.90;;;;;;10118869;28;20383;-66
2023/01/12 12:56:40;;;;;;;1.50;0.80;;;11.20;99.90;;;;;;10134077;28;20497;-66
2023/01/12 13:01:31;;;;;;;3.75;0.73;;;11.20;99.90;;;;;;10128232;28;20029;-67
2023/01/12 13:06:24;;;;;;;1.10;0.95;;;11.30;99.90;;;;;;10133479;28;20032;-66
2023/01/12 13:11:16;;;;;;;2.00;0.70;;;11.30;99.90;;;;;;10132856;28;20059;-66
2023/01/12 13:16:19;;;;;;;3.10;0.70;;;11.30;99.90;;;;;;10125595;28;20549;-67
2023/01/12 13:21:31;;;;;;;0.77;0.50;;;11.40;99.90;;;;;;10134599;28;20512;-65
2023/01/12 13:26:38;;;;;;;3.10;0.80;;;11.40;99.90;;;;;;10119625;28;20379;-67
2023/01/12 13:31:32;;;;;;;2.60;0.65;;;11.40;99.90;;;;;;10133747;28;20032;-67
2023/01/12 13:36:31;;;;;;;3.20;0.80;;;11.40;99.90;;;;;;10135596;28;20391;-67
2023/01/12 13:46:46;;;;;;;0.98;0.40;;;11.40;99.90;;;;;;10135714;28;20094;-68
2023/01/12 13:51:40;;;;;;;5.30;0.93;;;11.30;99.90;;;;;;10135653;28;20081;-66
2023/01/12 13:56:31;;;;;;;1.52;0.50;;;11.30;99.90;;;;;;10133882;28;20020;-69
2023/01/12 14:01:36;;;;;;;6.22;1.92;;;11.30;99.90;;;;;;10130882;28;20040;-68
2023/01/12 14:07:22;;;;;;;3.25;1.67;;;11.40;99.90;;;;;;10130555;28;20021;-66
2023/01/12 14:12:54;;;;;;;4.32;2.00;;;11.30;99.90;;;;;;10052405;28;20040;-67
2023/01/12 14:17:48;;;;;;;2.25;0.70;;;11.40;99.90;;;;;;10077410;28;20043;-70
2023/01/12 14:22:38;;;;;;;1.08;0.63;;;11.40;99.90;;;;;;10119493;28;20041;-69
2023/01/12 14:27:29;;;;;;;0.82;0.52;;;11.40;99.90;;;;;;10125946;28;20120;-69
2023/01/12 14:32:22;;;;;;;1.30;0.65;;;11.40;99.90;;;;;;10131801;28;20025;-68
2023/01/12 14:37:27;;;;;;;2.15;0.68;;;11.40;99.90;;;;;;10129517;28;20115;-69
2023/01/12 14:47:33;;;;;;;1.60;1.05;;;11.40;99.90;;;;;;10142675;28;20050;-65
2023/01/12 14:52:31;;;;;;;1.53;0.77;;;11.40;99.90;;;;;;10124240;28;20103;-68
2023/01/12 14:57:33;;;;;;;1.52;0.70;;;11.40;99.90;;;;;;10140184;28;20575;-66
2023/01/12 15:02:36;;;;;;;2.65;0.90;;;11.40;99.90;;;;;;10138141;28;20028;-67
2023/01/12 15:07:58;;;;;;;3.85;1.75;;;11.30;99.90;;;;;;10130042;28;20525;-67
2023/01/12 15:12:51;;;;;;;3.97;1.02;;;11.30;99.90;;;;;;10130415;28;20040;-69
2023/01/12 15:28:03;;;;;;;7.57;2.22;;;11.30;99.90;;;;;;10134024;28;20031;-69
2023/01/12 15:32:54;;;;;;;3.25;1.17;;;11.30;99.90;;;;;;10140134;28;20169;-68
2023/01/12 15:37:44;;;;;;;0.90;0.65;;;11.30;99.90;;;;;;10131840;28;20077;-69
2023/01/12 15:42:35;;;;;;;1.77;0.88;;;11.30;99.90;;;;;;10129510;28;20050;-67
2023/01/12 15:47:27;;;;;;;4.85;1.02;;;11.20;99.90;;;;;;10128051;28;20017;-67
2023/01/12 15:52:22;;;;;;;1.17;0.63;;;11.20;99.90;;;;;;10121656;28;20150;-67
2023/01/12 15:57:13;;;;;;;5.00;1.20;;;11.20;99.90;;;;;;10132059;28;20100;-69
2023/01/12 16:02:33;;;;;;;2.75;0.80;;;11.20;99.90;;;;;;10127868;28;20033;-70
2023/01/12 16:07:24;;;;;;;3.83;1.00;;;11.20;99.90;;;;;;10127161;28;20031;-68
2023/01/12 16:12:16;;;;;;;1.35;0.90;;;11.20;99.90;;;;;;10142524;28;20056;-68
2023/01/12 16:17:06;;;;;;;1.55;0.65;;;11.20;99.90;;;;;;10124915;28;20097;-67
2023/01/12 16:21:57;;;;;;;5.50;0.75;;;11.20;99.90;;;;;;10134685;28;20097;-69
2023/01/12 16:26:47;;;;;;;3.22;0.65;;;11.20;99.90;;;;;;10130968;28;20027;-71
2023/01/12 16:31:38;;;;;;;1.73;0.75;;;11.20;99.90;;;;;;10133245;28;20021;-66
2023/01/12 16:36:29;;;;;;;2.05;0.95;;;11.20;99.90;;;;;;10137648;28;20031;-69
2023/01/12 16:41:21;;;;;;;1.33;0.47;;;11.10;99.90;;;;;;10136727;28;20071;-67
2023/01/12 16:46:12;;;;;;;1.88;1.55;;;11.10;99.90;;;;;;10137121;28;20463;-70
2023/01/12 16:51:07;;;;;;;1.42;0.60;;;11.10;99.90;;;;;;10136484;28;20283;-66
2023/01/12 16:56:02;;;;;;;1.65;0.77;;;11.10;99.90;;;;;;10137147;28;20422;-66
2023/01/12 17:00:52;;;;;;;3.00;1.27;;;11.00;99.90;;;;;;10134212;28;20559;-68
2023/01/12 17:05:43;;;;;;;4.95;0.73;;;11.10;99.90;;;;;;10117869;28;20036;-68
2023/01/12 17:10:35;;;;;;;3.10;1.10;;;11.10;99.90;;;;;;10127530;28;20144;-69
2023/01/12 17:15:26;;;;;;;1.50;0.68;;;11.10;99.90;;;;;;10123708;28;20012;-69
2023/01/12 17:20:18;;;;;;;3.70;0.70;;;11.10;99.90;;;;;;10133674;28;20546;-65
2023/01/12 17:25:09;;;;;;;3.42;0.85;;;11.00;99.90;;;;;;10130200;28;20081;-66
2023/01/12 17:30:00;;;;;;;4.32;0.80;;;11.10;99.90;;;;;;10126111;28;20437;-68
2023/01/12 17:34:50;;;;;;;2.70;1.00;;;11.10;99.90;;;;;;10128080;28;20556;-66
2023/01/12 17:39:41;;;;;;;4.50;0.80;;;11.00;99.90;;;;;;10133274;28;20072;-68
2023/01/12 17:44:32;;;;;;;1.20;0.85;;;11.00;99.90;;;;;;10116394;28;20462;-74
2023/01/12 17:49:23;;;;;;;1.23;0.80;;;11.10;99.90;;;;;;10120232;28;20506;-66
2023/01/12 17:54:15;;;;;;;3.38;0.90;;;11.10;99.90;;;;;;10129976;28;20309;-68
2023/01/12 17:59:06;;;;;;;0.80;0.65;;;11.00;99.90;;;;;;10135586;28;20020;-68
2023/01/12 18:03:58;;;;;;;1.65;0.88;;;11.00;99.90;;;;;;10132728;28;20162;-70
2023/01/12 18:08:50;;;;;;;1.65;0.70;;;11.00;99.90;;;;;;10143752;28;20031;-68
2023/01/12 18:13:41;;;;;;;3.03;1.02;;;11.00;99.90;;;;;;10136121;28;20048;-65
2023/01/12 18:18:32;;;;;;;1.42;0.75;;;11.10;99.90;;;;;;10136782;28;20040;-66
2023/01/12 18:23:23;;;;;;;1.35;0.70;;;11.00;99.90;;;;;;10141780;28;20491;-65
2023/01/12 18:28:14;;;;;;;2.10;0.60;;;11.10;99.90;;;;;;10138317;28;20100;-65
2023/01/12 18:33:04;;;;;;;3.15;0.77;;;11.10;99.90;;;;;;10137087;28;20032;-70
2023/01/12 18:37:55;;;;;;;4.25;1.67;;;11.10;99.90;;;;;;10135777;28;20036;-66
2023/01/12 18:42:48;;;;;;;4.40;1.20;;;11.10;99.90;;;;;;10132628;28;20033;-67
2023/01/12 18:57:58;;;;;;;2.83;1.58;;;11.20;99.90;;;;;;10137715;28;20038;-71
2023/01/12 19:02:49;;;;;;;3.42;1.38;;;11.20;99.90;;;;;;10124254;28;20036;-68
2023/01/12 19:08:01;;;;;;;4.15;1.55;;;11.10;99.90;;;;;;10129252;28;20028;-63
2023/01/12 19:17:25;;;;;;;2.45;1.10;;;11.20;99.90;;;;;;10120099;28;20127;-60
2023/01/12 19:18:03;;;;;;;2.42;0.85;;;11.20;99.90;;;;;;10132497;28;20089;-66
2023/01/12 19:33:13;;;;;;;2.00;0.90;;;11.20;99.90;;;;;;10134546;28;20117;-67
2023/01/12 19:38:04;;;;;;;2.63;0.98;;;11.20;99.90;;;;;;10130137;28;20062;-67
2023/01/12 19:43:13;;;;;;;2.08;0.90;;;11.20;99.90;;;;;;10133421;28;20232;-66
2023/01/12 19:48:06;;;;;;;1.58;0.73;;;11.20;99.90;;;;;;10115463;28;20074;-70
2023/01/12 19:52:56;;;;;;;2.42;0.88;;;11.20;99.90;;;;;;10137876;28;20530;-69
2023/01/12 19:57:47;;;;;;;1.85;0.90;;;11.20;99.90;;;;;;10133907;28;20116;-66
2023/01/12 20:02:38;;;;;;;4.80;1.10;;;11.10;99.90;;;;;;10121667;28;20085;-65
2023/01/12 20:07:29;;;;;;;1.30;1.05;;;11.20;99.90;;;;;;10129044;28;20116;-66
2023/01/12 20:12:20;;;;;;;2.42;1.15;;;11.20;99.90;;;;;;10114130;28;20052;-68
2023/01/12 20:17:11;;;;;;;2.47;1.13;;;11.20;99.90;;;;;;10134151;28;20025;-67
2023/01/12 20:22:02;;;;;;;2.17;0.95;;;11.20;99.90;;;;;;10135220;28;20092;-68
2023/01/12 20:26:53;;;;;;;4.15;0.98;;;11.20;99.90;;;;;;10131770;28;20020;-69
2023/01/12 20:31:44;;;;;;;2.22;1.08;;;11.20;99.90;;;;;;10133061;28;20013;-66
2023/01/12 20:36:37;;;;;;;1.65;0.75;;;11.20;99.90;;;;;;10125283;28;20135;-68
2023/01/12 20:41:28;;;;;;;2.67;1.13;;;11.20;99.90;;;;;;10135067;28;20433;-67
2023/01/12 20:46:18;;;;;;;5.82;1.77;;;11.30;99.90;;;;;;10123805;28;20025;-68
2023/01/12 20:51:12;;;;;;;2.55;1.08;;;11.30;99.90;;;;;;10124294;28;20032;-69
2023/01/12 20:56:03;;;;;;;5.47;2.05;;;11.30;99.90;;;;;;10134062;28;20116;-67
2023/01/12 21:00:54;;;;;;;2.28;0.98;;;11.30;99.90;;;;;;10135630;28;20121;-65
2023/01/12 21:05:46;;;;;;;3.20;1.38;;;11.30;99.90;;;;;;10112002;28;20546;-66
2023/01/12 21:10:38;;;;;;;2.10;1.10;;;11.30;99.90;;;;;;10120429;28;20423;-64
2023/01/12 21:15:29;;;;;;;1.58;0.70;;;11.40;99.90;;;;;;10125535;28;20017;-66
2023/01/12 21:20:19;;;;;;;1.45;1.30;;;11.40;99.90;;;;;;10133347;28;20040;-66
2023/01/12 21:25:10;;;;;;;1.90;0.80;;;11.40;99.90;;;;;;10129038;28;20363;-66
2023/01/12 21:30:01;;;;;;;3.90;0.82;;;11.40;99.90;;;;;;10126796;28;20621;-65
2023/01/12 21:34:52;;;;;;;1.92;1.00;;;11.40;99.90;;;;;;10130545;28;20017;-65
2023/01/12 21:39:43;;;;;;;3.10;1.38;;;11.40;99.90;;;;;;10143454;28;20036;-66
2023/01/12 21:44:34;;;;;;;4.80;1.05;;;11.40;99.90;;;;;;10111252;28;20055;-66
2023/01/12 21:49:24;;;;;;;3.42;0.73;;;11.40;99.90;;;;;;10142429;28;20032;-65
2023/01/12 21:54:15;;;;;;;1.35;0.77;;;11.40;99.90;;;;;;10137736;28;20025;-66
2023/01/12 21:59:06;;;;;;;3.10;0.80;;;11.50;99.90;;;;;;10135097;28;20025;-65
2023/01/12 22:03:56;;;;;;;1.45;0.70;;;11.50;99.90;;;;;;10138654;28;20031;-64
2023/01/12 22:08:47;;;;;;;0.88;0.75;;;11.50;99.90;;;;;;10128226;28;20029;-64
2023/01/12 22:13:38;;;;;;;1.80;1.15;;;11.50;99.90;;;;;;10136039;28;20474;-64
2023/01/12 22:18:29;;;;;;;5.00;1.40;;;11.60;99.90;;;;;;10138057;28;20373;-63
2023/01/12 22:23:19;;;;;;;0.98;0.73;;;11.60;99.90;;;;;;10135370;28;20032;-65
2023/01/12 22:28:10;;;;;;;4.63;0.70;;;11.60;99.90;;;;;;10133066;28;20024;-66
2023/01/12 22:33:01;;;;;;;2.05;0.85;;;11.60;99.90;;;;;;10130592;28;20431;-65
2023/01/12 22:37:53;;;;;;;1.42;0.45;;;11.60;99.90;;;;;;10132229;28;20012;-66
2023/01/12 22:47:54;;;;;;;1.17;0.70;;;11.60;99.90;;;;;;10123415;28;20120;-65
2023/01/12 22:52:51;;;;;;;2.60;0.60;;;11.60;99.90;;;;;;10139412;28;20064;-64
2023/01/12 22:57:42;;;;;;;1.98;1.05;;;11.70;99.90;;;;;;10136477;28;20032;-64
2023/01/12 23:07:42;;;;;;;2.30;0.47;;;11.80;99.90;;;;;;10121103;28;20299;-64
2023/01/12 23:12:32;;;;;;;2.25;0.82;;;11.80;99.90;;;;;;10124302;28;20055;-64
2023/01/12 23:17:23;;;;;;;2.05;0.63;;;11.90;99.90;;;;;;10136168;28;20478;-65
2023/01/12 23:22:13;;;;;;;2.38;0.60;;;12.00;99.90;;;;;;10138065;28;20028;-65
2023/01/12 23:27:05;;;;;;;1.85;0.90;;;12.00;99.90;;;;;;10126070;28;20371;-65
2023/01/12 23:31:55;;;;;;;1.77;0.55;;;12.10;99.90;;;;;;10129491;28;20029;-64
2023/01/12 23:36:46;;;;;;;1.73;0.40;;;12.10;99.90;;;;;;10132582;28;20560;-65
2023/01/12 23:41:37;;;;;;;1.55;0.47;;;12.10;99.90;;;;;;10138125;28;20025;-65
2023/01/12 23:46:31;;;;;;;1.98;0.63;;;12.10;99.90;;;;;;10117460;28;20040;-65
2023/01/12 23:51:24;;;;;;;0.98;0.50;;;12.00;99.90;;;;;;10122872;28;20032;-65
2023/01/12 23:56:15;;;;;;;0.88;0.32;;;11.80;99.90;;;;;;10133836;28;20052;-65
